Time;durP1;ratioP1;P1;durP2;ratioP2;P2;SDS_P1;SDS_P2;PMS_P1;PMS_P2;Temp;Humidity;BMP_temperature;BMP_pressure;BME280_temperature;BME280_humidity;BME280_pressure;Samples;Min_cycle;Max_cycle;Signal;HPM_P1;HPM_P2
2021/07/30 00:05:58;;;;;;;9.65;4.03;;;;;;;15.72;76.42;100121.72;20902940;28;20048;-69
2021/07/30 00:16:00;;;;;;;7.53;4.13;;;;;;;15.56;77.14;100116.16;20903042;28;20049;-69
2021/07/30 00:26:02;;;;;;;6.13;4.03;;;;;;;15.52;77.38;100099.59;20902018;28;20491;-69
2021/07/30 00:36:04;;;;;;;8.90;4.10;;;;;;;15.35;77.75;100102.06;20901530;28;20037;-69
2021/07/30 00:46:06;;;;;;;6.32;4.00;;;;;;;14.97;79.35;100107.06;20901740;28;20060;-69
2021/07/30 00:56:09;;;;;;;6.43;4.03;;;;;;;15.02;78.75;100105.09;20901394;28;20048;-69
2021/07/30 01:06:11;;;;;;;11.65;4.57;;;;;;;15.03;78.38;100106.81;20899197;28;20499;-69
2021/07/30 01:16:13;;;;;;;9.10;4.07;;;;;;;14.77;78.77;100099.91;20899703;28;20049;-69
2021/07/30 01:26:16;;;;;;;7.68;4.50;;;;;;;14.72;79.48;100103.63;20900084;28;20073;-69
2021/07/30 01:36:18;;;;;;;8.65;4.30;;;;;;;14.81;79.28;100095.38;20899411;28;20048;-69
2021/07/30 01:46:19;;;;;;;7.93;4.57;;;;;;;14.84;78.98;100096.09;20904461;28;20095;-69
2021/07/30 01:56:21;;;;;;;7.15;4.43;;;;;;;14.72;78.25;100093.09;20914549;28;20852;-69
2021/07/30 02:06:23;;;;;;;7.90;4.35;;;;;;;14.60;79.21;100087.34;20913281;28;20063;-70
2021/07/30 02:16:25;;;;;;;6.95;4.47;;;;;;;14.47;79.36;100086.06;20913129;28;20646;-69
2021/07/30 02:26:27;;;;;;;7.18;4.55;;;;;;;14.44;79.71;100094.06;20912271;28;20107;-69
2021/07/30 02:36:29;;;;;;;6.63;3.80;;;;;;;14.67;77.97;100073.97;20910965;28;20509;-69
2021/07/30 02:46:30;;;;;;;8.13;4.10;;;;;;;14.78;78.32;100070.00;20910595;28;20048;-69
2021/07/30 02:56:32;;;;;;;7.93;4.00;;;;;;;14.80;78.59;100069.91;20909229;28;20045;-69
2021/07/30 03:06:34;;;;;;;8.82;4.00;;;;;;;14.70;79.02;100060.66;20908410;28;20041;-69
2021/07/30 03:16:36;;;;;;;9.05;4.30;;;;;;;14.45;79.73;100051.00;20908528;28;20434;-69
2021/07/30 03:26:38;;;;;;;7.60;4.15;;;;;;;14.37;80.59;100042.53;20906789;28;20053;-69
2021/07/30 03:36:40;;;;;;;7.20;4.45;;;;;;;14.45;80.06;100040.47;20905969;28;20552;-69
2021/07/30 03:46:42;;;;;;;7.53;4.68;;;;;;;14.47;80.09;100028.13;20905336;28;20041;-69
2021/07/30 03:56:44;;;;;;;8.95;4.65;;;;;;;14.45;80.17;100024.66;20905067;28;20045;-68
2021/07/30 04:06:47;;;;;;;8.43;4.22;;;;;;;14.45;79.61;100026.44;20902416;28;20045;-68
2021/07/30 04:16:49;;;;;;;6.82;4.13;;;;;;;14.44;80.03;100022.09;20902268;28;20064;-69
2021/07/30 04:26:51;;;;;;;8.13;4.97;;;;;;;14.53;79.54;100038.44;20903754;28;20092;-69
2021/07/30 04:36:52;;;;;;;6.50;4.05;;;;;;;14.71;79.15;100041.28;20903003;28;20446;-68
2021/07/30 04:46:54;;;;;;;9.98;5.40;;;;;;;14.67;79.59;100034.44;20902753;28;20053;-69
2021/07/30 04:56:56;;;;;;;7.18;4.60;;;;;;;14.76;79.94;100039.34;20884735;28;20183;-69
2021/07/30 05:06:58;;;;;;;9.43;4.90;;;;;;;15.07;78.00;100034.56;20901736;28;20045;-69
2021/07/30 05:17:00;;;;;;;10.07;4.68;;;;;;;15.37;77.85;100032.47;20885015;28;20053;-69
2021/07/30 05:27:04;;;;;;;6.57;4.43;;;;;;;15.60;76.81;100026.22;20913517;28;20045;-69
2021/07/30 05:37:06;;;;;;;6.93;3.90;;;;;;;15.72;75.29;100027.53;20917595;28;20037;-69
2021/07/30 05:47:08;;;;;;;7.28;3.75;;;;;;;16.09;73.95;100020.63;20917211;28;20553;-69
2021/07/30 05:57:09;;;;;;;7.32;4.28;;;;;;;16.43;72.63;100014.69;20917116;28;20095;-68
2021/07/30 06:07:11;;;;;;;7.38;4.03;;;;;;;16.66;72.88;100019.75;20914413;28;20041;-69
2021/07/30 06:17:13;;;;;;;5.68;3.38;;;;;;;17.01;72.75;99995.25;20912072;28;20049;-69
2021/07/30 06:27:16;;;;;;;8.88;4.20;;;;;;;17.17;71.57;99998.88;20896751;28;20049;-70
2021/07/30 06:37:18;;;;;;;8.70;4.18;;;;;;;17.31;72.21;99999.03;20909934;28;20045;-69
2021/07/30 06:47:22;;;;;;;8.73;3.97;;;;;;;17.53;70.61;100001.44;20911238;28;20048;-69
2021/07/30 06:57:24;;;;;;;8.50;4.07;;;;;;;18.04;70.47;100004.16;20910563;28;20091;-69
2021/07/30 07:07:26;;;;;;;9.50;4.03;;;;;;;18.28;68.61;99992.25;20886108;28;20118;-69
2021/07/30 07:17:27;;;;;;;8.57;3.88;;;;;;;18.64;67.73;99989.41;20847985;28;20100;-70
2021/07/30 07:27:29;;;;;;;7.75;4.20;;;;;;;19.02;67.96;99994.38;20897756;28;20044;-70
2021/07/30 07:37:31;;;;;;;9.20;4.18;;;;;;;19.12;66.90;99974.31;20892829;28;20384;-70
2021/07/30 07:47:33;;;;;;;6.78;4.00;;;;;;;19.56;66.13;99973.50;20824547;28;20541;-70
2021/07/30 07:57:34;;;;;;;8.23;4.07;;;;;;;20.01;64.85;99969.03;20825018;28;20083;-70
2021/07/30 08:07:36;;;;;;;6.45;3.33;;;;;;;20.41;62.44;99947.91;20823696;28;20092;-70
2021/07/30 08:17:38;;;;;;;6.00;3.45;;;;;;;20.70;60.99;99949.63;20888504;28;20052;-70
2021/07/30 08:27:40;;;;;;;5.97;3.10;;;;;;;21.18;59.29;99957.16;20904727;28;20076;-70
2021/07/30 08:37:43;;;;;;;7.75;3.80;;;;;;;21.42;58.85;99960.00;20904395;28;20045;-70
2021/07/30 08:47:44;;;;;;;6.68;3.47;;;;;;;21.84;59.24;99944.66;20903783;28;20548;-70
2021/07/30 08:57:46;;;;;;;7.82;4.07;;;;;;;22.38;57.08;99944.44;20902668;28;20064;-70
2021/07/30 09:07:48;;;;;;;6.97;4.22;;;;;;;22.74;56.28;99936.41;20901724;28;20044;-70
2021/07/30 09:17:50;;;;;;;6.97;4.22;;;;;;;23.06;55.46;99933.19;20833833;28;20488;-70
2021/07/30 09:28:02;;;;;;;6.80;3.63;;;;;;;23.23;50.16;99907.88;20819275;28;20050;-69
2021/07/30 09:38:17;;;;;;;7.95;3.78;;;;;;;22.93;49.31;99913.72;20818565;28;20037;-70
2021/07/30 09:48:40;;;;;;;6.38;3.00;;;;;;;23.43;47.65;99887.69;20818402;28;20049;-70
2021/07/30 09:58:45;;;;;;;9.20;3.03;;;;;;;23.94;46.59;99881.91;20817611;28;20045;-68
2021/07/30 10:08:48;;;;;;;5.40;2.65;;;;;;;23.80;46.85;99877.63;20822787;28;20046;-68
2021/07/30 10:18:50;;;;;;;7.30;2.95;;;;;;;24.03;47.07;99879.34;20906194;28;20110;-67
2021/07/30 10:28:57;;;;;;;5.63;3.00;;;;;;;24.51;44.80;99854.97;20913540;28;20045;-68
2021/07/30 10:39:08;;;;;;;6.70;3.55;;;;;;;24.37;46.67;99846.38;20912686;28;20510;-70
2021/07/30 10:49:37;;;;;;;7.97;3.63;;;;;;;25.01;45.77;99836.50;20912020;28;20044;-71
2021/07/30 11:00:04;;;;;;;6.88;3.72;;;;;;;25.42;44.50;99816.03;20908627;28;20099;-70
2021/07/30 11:10:15;;;;;;;7.65;3.80;;;;;;;25.33;45.26;99806.97;20907143;28;20046;-71
2021/07/30 11:20:17;;;;;;;6.70;3.90;;;;;;;25.40;45.21;99806.44;20827207;28;20061;-70
2021/07/30 11:30:19;;;;;;;9.35;4.05;;;;;;;25.72;43.90;99807.13;20826502;28;20045;-69
2021/07/30 11:40:21;;;;;;;7.35;4.47;;;;;;;26.18;44.20;99808.44;20826323;28;20091;-70
2021/07/30 11:50:26;;;;;;;6.53;4.30;;;;;;;25.65;45.16;99810.50;20825719;28;20100;-71
2021/07/30 12:00:29;;;;;;;8.75;4.25;;;;;;;26.09;44.40;99785.13;20824205;28;20041;-71
2021/07/30 12:10:35;;;;;;;6.70;4.15;;;;;;;25.56;44.71;99771.94;20830210;28;20491;-70
2021/07/30 12:20:39;;;;;;;7.38;4.32;;;;;;;25.89;43.34;99756.56;20902804;28;20041;-71
2021/07/30 12:30:41;;;;;;;7.63;4.45;;;;;;;25.70;45.14;99731.34;20902315;28;20037;-70
2021/07/30 12:40:44;;;;;;;7.20;4.28;;;;;;;25.91;45.16;99725.06;20904157;28;20053;-70
2021/07/30 12:50:47;;;;;;;6.80;3.97;;;;;;;26.38;44.54;99707.31;20901873;28;20484;-70
2021/07/30 13:00:50;;;;;;;7.97;4.80;;;;;;;25.97;44.38;99690.50;20898284;28;20110;-70
2021/07/30 13:10:52;;;;;;;8.65;4.68;;;;;;;25.73;46.48;99669.41;20901972;28;20474;-70
2021/07/30 13:20:55;;;;;;;7.13;4.32;;;;;;;26.68;44.52;99643.69;20898887;28;20552;-70
2021/07/30 13:30:57;;;;;;;9.77;4.68;;;;;;;26.64;43.68;99637.78;20899834;28;20049;-70
2021/07/30 13:40:59;;;;;;;9.88;4.75;;;;;;;26.74;42.64;99627.03;20878896;28;20053;-70
2021/07/30 13:51:04;;;;;;;7.88;4.68;;;;;;;26.94;42.18;99604.44;20833161;28;20047;-69
2021/07/30 14:01:07;;;;;;;7.68;4.63;;;;;;;26.81;43.39;99587.81;20831293;28;20138;-70
2021/07/30 14:11:14;;;;;;;7.70;4.80;;;;;;;26.60;43.31;99601.47;20860876;28;20044;-70
2021/07/30 14:21:16;;;;;;;6.32;4.53;;;;;;;27.07;43.15;99596.06;20898028;28;20307;-70
2021/07/30 14:31:17;;;;;;;9.80;4.78;;;;;;;27.19;43.06;99605.63;20901946;28;20049;-69
2021/07/30 14:41:20;;;;;;;9.85;4.25;;;;;;;27.51;43.09;99604.31;20912846;28;20049;-67
2021/07/30 14:51:22;;;;;;;8.32;4.70;;;;;;;27.26;42.16;99604.03;20943040;28;20480;-67
2021/07/30 15:01:23;;;;;;;6.30;4.25;;;;;;;26.89;44.05;99622.00;20911773;28;20095;-67
2021/07/30 15:11:27;;;;;;;7.45;4.03;;;;;;;26.96;44.30;99610.50;20908814;28;20052;-68
2021/07/30 15:21:28;;;;;;;7.90;4.47;;;;;;;27.15;43.93;99604.22;20908651;28;20371;-67
2021/07/30 15:31:31;;;;;;;7.97;4.28;;;;;;;27.43;43.60;99588.09;20906458;28;20147;-67
2021/07/30 15:41:33;;;;;;;7.55;4.30;;;;;;;27.09;43.56;99586.03;20906991;28;20045;-69
2021/07/30 15:51:35;;;;;;;7.18;4.40;;;;;;;27.34;43.88;99577.22;20905095;28;20048;-67
2021/07/30 16:01:41;;;;;;;8.52;4.53;;;;;;;27.61;41.58;99575.50;20905250;28;20733;-67
2021/07/30 16:11:43;;;;;;;6.68;4.15;;;;;;;26.98;42.82;99596.94;20887976;28;20469;-67
2021/07/30 16:21:45;;;;;;;6.60;3.75;;;;;;;26.40;44.56;99597.97;20821437;28;20480;-69
2021/07/30 16:31:47;;;;;;;5.93;3.78;;;;;;;26.49;43.99;99590.88;20819648;28;20614;-69
2021/07/30 16:41:49;;;;;;;6.80;3.88;;;;;;;26.24;43.94;99584.28;20821292;28;20057;-69
2021/07/30 16:51:50;;;;;;;8.40;3.80;;;;;;;26.10;44.94;99583.72;20820758;28;20057;-67
2021/07/30 17:01:52;;;;;;;8.43;4.03;;;;;;;25.81;46.38;99585.59;20818432;28;20049;-67
2021/07/30 17:11:54;;;;;;;8.32;4.05;;;;;;;25.80;46.46;99591.97;20835255;28;20049;-67
2021/07/30 17:21:57;;;;;;;6.93;3.88;;;;;;;25.71;47.94;99596.28;20913445;28;20049;-67
2021/07/30 17:31:59;;;;;;;8.85;4.20;;;;;;;25.53;47.45;99596.13;20916265;28;20075;-67
2021/07/30 17:42:02;;;;;;;6.95;3.92;;;;;;;26.37;45.39;99597.41;20915963;28;20053;-67
2021/07/30 17:52:04;;;;;;;6.00;3.60;;;;;;;26.83;44.28;99585.84;20915496;28;20049;-67
2021/07/30 18:02:06;;;;;;;7.53;3.95;;;;;;;26.63;43.96;99593.09;20940548;28;20040;-68
2021/07/30 18:12:08;;;;;;;5.80;3.90;;;;;;;25.83;46.58;99597.88;20977877;28;20522;-67
2021/07/30 18:22:10;;;;;;;6.28;3.45;;;;;;;25.34;47.83;99598.78;20912108;28;20041;-67
2021/07/30 18:32:11;;;;;;;8.70;4.13;;;;;;;25.06;49.29;99592.34;20913332;28;20041;-67
2021/07/30 18:42:24;;;;;;;6.15;3.63;;;;;;;24.68;49.93;99607.28;20915949;28;20049;-67
2021/07/30 18:52:26;;;;;;;6.00;4.07;;;;;;;24.47;49.81;99611.78;20915087;28;20056;-67
2021/07/30 19:02:28;;;;;;;6.05;3.80;;;;;;;24.16;51.15;99616.22;20962690;28;20052;-67
2021/07/30 19:12:30;;;;;;;6.00;3.80;;;;;;;23.90;52.01;99626.41;20969024;28;20052;-67
2021/07/30 19:22:33;;;;;;;7.53;4.13;;;;;;;23.75;52.09;99632.06;20973391;28;20406;-69
2021/07/30 19:32:34;;;;;;;6.32;3.75;;;;;;;23.54;53.00;99663.22;20975458;28;20102;-70
2021/07/30 19:42:35;;;;;;;6.03;3.83;;;;;;;23.36;52.66;99681.56;20957908;28;20114;-69
2021/07/30 19:52:37;;;;;;;6.32;3.80;;;;;;;23.24;52.54;99704.78;20975384;28;20044;-69
2021/07/30 20:02:39;;;;;;;7.07;3.97;;;;;;;23.03;52.73;99711.78;20955167;28;20390;-69
2021/07/30 20:12:40;;;;;;;10.40;4.22;;;;;;;22.72;53.49;99719.50;20956055;28;20040;-66
2021/07/30 20:22:43;;;;;;;7.55;3.35;;;;;;;22.57;51.91;99731.34;20962378;28;20137;-69
2021/07/30 20:32:44;;;;;;;9.18;3.25;;;;;;;22.49;51.77;99733.75;20980727;28;20037;-69
2021/07/30 20:42:46;;;;;;;6.45;3.25;;;;;;;22.24;52.43;99743.59;20967555;28;20045;-69
2021/07/30 20:52:48;;;;;;;6.90;3.35;;;;;;;22.08;53.03;99745.66;20967633;28;20091;-69
2021/07/30 21:02:49;;;;;;;8.80;3.60;;;;;;;21.67;55.11;99744.19;20969483;28;20053;-69
2021/07/30 21:12:53;;;;;;;8.93;3.90;;;;;;;21.43;56.29;99751.28;20972473;28;20106;-69
2021/07/30 21:22:55;;;;;;;6.23;2.90;;;;;;;21.29;55.65;99759.38;20980446;28;20040;-69
2021/07/30 21:33:01;;;;;;;9.88;3.20;;;;;;;21.34;55.19;99771.44;20979848;28;20295;-69
2021/07/30 21:43:03;;;;;;;8.13;3.38;;;;;;;21.16;56.53;99784.19;20979555;28;20044;-70
2021/07/30 21:53:05;;;;;;;7.88;2.97;;;;;;;20.80;57.27;99808.00;20979781;28;20052;-70
2021/07/30 22:03:06;;;;;;;6.90;3.28;;;;;;;20.57;58.91;99809.53;20978810;28;20483;-69
2021/07/30 22:13:08;;;;;;;7.95;3.55;;;;;;;20.45;59.01;99813.81;20979592;28;20048;-70
2021/07/30 22:23:10;;;;;;;6.00;3.15;;;;;;;20.34;59.07;99827.81;20987966;28;20078;-69
2021/07/30 22:33:12;;;;;;;7.38;3.05;;;;;;;20.28;59.50;99832.69;20986701;28;20490;-70
2021/07/30 22:43:14;;;;;;;6.30;3.03;;;;;;;19.96;60.62;99852.41;20982253;28;20230;-70
2021/07/30 22:53:16;;;;;;;7.15;2.47;;;;;;;19.87;60.80;99860.94;20984962;28;20048;-70
2021/07/30 23:03:18;;;;;;;6.63;2.83;;;;;;;19.68;62.22;99873.66;20983258;28;20462;-70
2021/07/30 23:13:20;;;;;;;9.25;2.80;;;;;;;19.55;61.40;99875.34;20983135;28;20045;-70
2021/07/30 23:23:21;;;;;;;6.63;2.25;;;;;;;19.40;60.91;99893.03;20982567;28;20430;-70
2021/07/30 23:33:23;;;;;;;5.38;2.35;;;;;;;19.30;61.33;99899.84;20982345;28;20105;-70
2021/07/30 23:43:25;;;;;;;7.10;2.30;;;;;;;19.13;61.78;99911.50;20981424;28;20045;-69
2021/07/30 23:53:27;;;;;;;6.32;2.10;;;;;;;19.03;61.75;99921.78;20979730;28;20407;-70
